sensor_id;sensor_type;location;lat;lon;timestamp;pressure;altitude;pressure_sealevel;temperature;humidity
7586;BME280;12459;42.646;23.292;2023-02-18T00:12:04;94337.16;;;8.85;100.00
7586;BME280;12459;42.646;23.292;2023-02-18T00:27:05;94317.66;;;8.84;100.00
7586;BME280;12459;42.646;23.292;2023-02-18T00:42:07;94298.59;;;8.86;100.00
7586;BME280;12459;42.646;23.292;2023-02-18T00:57:09;94311.16;;;8.82;100.00
7586;BME280;12459;42.646;23.292;2023-02-18T01:12:14;94300.09;;;8.83;100.00
7586;BME280;12459;42.646;23.292;2023-02-18T01:27:15;94284.84;;;8.87;100.00
7586;BME280;12459;42.646;23.292;2023-02-18T01:42:21;94305.38;;;8.73;100.00
7586;BME280;12459;42.646;23.292;2023-02-18T01:57:26;94287.06;;;8.71;100.00
7586;BME280;12459;42.646;23.292;2023-02-18T02:42:54;94287.03;;;8.68;100.00
7586;BME280;12459;42.646;23.292;2023-02-18T02:57:58;94280.19;;;8.74;100.00
7586;BME280;12459;42.646;23.292;2023-02-18T03:13:03;94311.47;;;8.70;100.00
7586;BME280;12459;42.646;23.292;2023-02-18T03:28:09;94280.13;;;8.59;100.00
7586;BME280;12459;42.646;23.292;2023-02-18T03:43:12;94327.47;;;8.66;100.00
7586;BME280;12459;42.646;23.292;2023-02-18T03:58:14;94351.13;;;8.64;100.00
7586;BME280;12459;42.646;23.292;2023-02-18T04:13:15;94322.50;;;8.61;100.00
7586;BME280;12459;42.646;23.292;2023-02-18T04:28:19;94307.59;;;8.60;100.00
7586;BME280;12459;42.646;23.292;2023-02-18T04:43:21;94298.00;;;8.52;100.00
7586;BME280;12459;42.646;23.292;2023-02-18T04:58:23;94305.25;;;8.51;100.00
7586;BME280;12459;42.646;23.292;2023-02-18T05:13:24;94362.09;;;8.52;100.00
7586;BME280;12459;42.646;23.292;2023-02-18T05:28:25;94306.38;;;8.47;100.00
7586;BME280;12459;42.646;23.292;2023-02-18T05:43:27;94302.56;;;8.48;100.00
7586;BME280;12459;42.646;23.292;2023-02-18T05:58:29;94331.97;;;8.51;100.00
7586;BME280;12459;42.646;23.292;2023-02-18T06:13:30;93966.72;;;6.00;100.00
7586;BME280;12459;42.646;23.292;2023-02-18T06:28:32;94329.84;;;8.75;100.00
7586;BME280;12459;42.646;23.292;2023-02-18T06:43:33;94318.75;;;8.73;100.00
7586;BME280;12459;42.646;23.292;2023-02-18T06:58:35;94322.16;;;8.70;100.00
7586;BME280;12459;42.646;23.292;2023-02-18T07:13:37;94322.56;;;8.72;100.00
7586;BME280;12459;42.646;23.292;2023-02-18T07:28:39;94298.94;;;8.77;100.00
7586;BME280;12459;42.646;23.292;2023-02-18T07:43:41;94334.44;;;8.78;100.00
7586;BME280;12459;42.646;23.292;2023-02-18T07:58:42;94350.88;;;8.83;100.00
7586;BME280;12459;42.646;23.292;2023-02-18T08:13:44;94345.94;;;8.85;100.00
7586;BME280;12459;42.646;23.292;2023-02-18T08:28:47;94315.03;;;8.88;100.00
7586;BME280;12459;42.646;23.292;2023-02-18T08:43:49;94300.91;;;8.91;100.00
7586;BME280;12459;42.646;23.292;2023-02-18T08:58:50;94328.78;;;8.93;100.00
7586;BME280;12459;42.646;23.292;2023-02-18T09:13:52;94335.31;;;8.96;100.00
7586;BME280;12459;42.646;23.292;2023-02-18T09:28:55;94320.44;;;9.02;100.00
7586;BME280;12459;42.646;23.292;2023-02-18T09:44:01;94291.06;;;9.09;100.00
7586;BME280;12459;42.646;23.292;2023-02-18T09:59:04;94293.00;;;9.16;100.00
7586;BME280;12459;42.646;23.292;2023-02-18T10:14:12;94289.59;;;9.26;100.00
7586;BME280;12459;42.646;23.292;2023-02-18T10:29:16;94284.63;;;9.24;100.00
7586;BME280;12459;42.646;23.292;2023-02-18T10:44:26;94266.69;;;9.28;100.00
7586;BME280;12459;42.646;23.292;2023-02-18T10:59:33;94237.72;;;9.38;100.00
7586;BME280;12459;42.646;23.292;2023-02-18T11:14:36;94216.69;;;9.40;100.00
7586;BME280;12459;42.646;23.292;2023-02-18T11:45:45;94157.47;;;9.48;100.00
7586;BME280;12459;42.646;23.292;2023-02-18T13:39:28;94059.59;;;9.83;100.00
7586;BME280;12459;42.646;23.292;2023-02-18T13:54:31;94050.81;;;9.86;100.00
7586;BME280;12459;42.646;23.292;2023-02-18T14:09:37;94048.91;;;9.83;100.00
7586;BME280;12459;42.646;23.292;2023-02-18T14:24:47;94057.31;;;9.85;100.00
7586;BME280;12459;42.646;23.292;2023-02-18T15:10:43;94053.47;;;9.86;100.00
7586;BME280;12459;42.646;23.292;2023-02-18T15:25:48;94044.28;;;9.87;100.00
7586;BME280;12459;42.646;23.292;2023-02-18T15:40:50;94027.47;;;9.83;100.00
7586;BME280;12459;42.646;23.292;2023-02-18T15:55:53;94006.84;;;9.80;100.00
7586;BME280;12459;42.646;23.292;2023-02-18T16:10:55;94001.50;;;9.80;100.00
7586;BME280;12459;42.646;23.292;2023-02-18T16:26:08;94008.75;;;9.83;100.00
7586;BME280;12459;42.646;23.292;2023-02-18T16:41:11;94001.88;;;9.82;100.00
7586;BME280;12459;42.646;23.292;2023-02-18T16:56:14;94011.44;;;9.79;100.00
7586;BME280;12459;42.646;23.292;2023-02-18T17:11:38;94016.78;;;9.83;100.00
7586;BME280;12459;42.646;23.292;2023-02-18T17:26:38;94022.13;;;9.83;100.00
7586;BME280;12459;42.646;23.292;2023-02-18T17:41:40;94022.13;;;9.83;100.00
7586;BME280;12459;42.646;23.292;2023-02-18T17:56:42;94013.72;;;9.81;100.00
7586;BME280;12459;42.646;23.292;2023-02-18T18:11:43;94008.78;;;9.76;100.00
7586;BME280;12459;42.646;23.292;2023-02-18T18:26:45;94013.34;;;9.79;100.00
7586;BME280;12459;42.646;23.292;2023-02-18T18:41:47;94016.41;;;9.77;100.00
7586;BME280;12459;42.646;23.292;2023-02-18T18:56:48;94010.69;;;9.75;100.00
7586;BME280;12459;42.646;23.292;2023-02-18T19:11:50;93969.41;;;9.66;100.00
7586;BME280;12459;42.646;23.292;2023-02-18T19:26:52;93982.41;;;9.67;100.00
7586;BME280;12459;42.646;23.292;2023-02-18T19:41:53;94008.41;;;9.70;100.00
7586;BME280;12459;42.646;23.292;2023-02-18T19:56:55;94018.34;;;9.70;100.00
7586;BME280;12459;42.646;23.292;2023-02-18T20:11:57;94006.88;;;9.66;100.00
7586;BME280;12459;42.646;23.292;2023-02-18T20:26:59;94011.09;;;9.67;100.00
7586;BME280;12459;42.646;23.292;2023-02-18T20:42:03;94009.56;;;9.66;100.00
7586;BME280;12459;42.646;23.292;2023-02-18T20:57:16;93996.94;;;9.63;100.00
7586;BME280;12459;42.646;23.292;2023-02-18T21:12:18;93996.56;;;9.64;100.00
7586;BME280;12459;42.646;23.292;2023-02-18T21:27:19;93984.34;;;9.56;100.00
7586;BME280;12459;42.646;23.292;2023-02-18T21:42:21;93969.44;;;9.58;100.00
7586;BME280;12459;42.646;23.292;2023-02-18T21:57:23;93965.63;;;9.52;100.00
7586;BME280;12459;42.646;23.292;2023-02-18T22:12:25;93942.72;;;9.51;100.00
7586;BME280;12459;42.646;23.292;2023-02-18T22:27:26;93951.13;;;9.53;100.00
7586;BME280;12459;42.646;23.292;2023-02-18T22:42:28;93959.13;;;9.53;100.00
7586;BME280;12459;42.646;23.292;2023-02-18T22:57:29;93943.47;;;9.52;100.00
7586;BME280;12459;42.646;23.292;2023-02-18T23:12:31;93929.72;;;9.53;100.00
7586;BME280;12459;42.646;23.292;2023-02-18T23:27:32;93936.22;;;9.52;100.00
7586;BME280;12459;42.646;23.292;2023-02-18T23:42:34;93928.94;;;9.53;100.00
7586;BME280;12459;42.646;23.292;2023-02-18T23:57:35;93913.69;;;9.50;100.00
